sensor_id;sensor_type;location;lat;lon;timestamp;temperature;humidity
1678;DHT22;6034;46.864;15.216;2022-07-23T06:15:24;27.10;98.90
1678;DHT22;6034;46.864;15.216;2022-07-23T06:17:51;27.10;99.10
1678;DHT22;6034;46.864;15.216;2022-07-23T06:20:18;27.10;98.40
1678;DHT22;6034;46.864;15.216;2022-07-23T06:22:45;27.00;98.30
1678;DHT22;6034;46.864;15.216;2022-07-23T06:25:12;27.20;98.00
1678;DHT22;6034;46.864;15.216;2022-07-23T06:27:39;27.20;98.30
1678;DHT22;6034;46.864;15.216;2022-07-23T06:30:06;27.30;98.60
1678;DHT22;6034;46.864;15.216;2022-07-23T06:32:35;27.50;97.70
1678;DHT22;6034;46.864;15.216;2022-07-23T06:35:02;27.70;96.70
1678;DHT22;6034;46.864;15.216;2022-07-23T06:37:29;27.50;96.70
1678;DHT22;6034;46.864;15.216;2022-07-23T06:39:55;27.40;96.20
1678;DHT22;6034;46.864;15.216;2022-07-23T06:42:22;27.20;95.00
1678;DHT22;6034;46.864;15.216;2022-07-23T06:44:49;27.40;96.50
1678;DHT22;6034;46.864;15.216;2022-07-23T06:47:16;27.20;94.70
1678;DHT22;6034;46.864;15.216;2022-07-23T06:49:44;27.20;95.70
1678;DHT22;6034;46.864;15.216;2022-07-23T06:52:11;27.20;94.80
1678;DHT22;6034;46.864;15.216;2022-07-23T06:54:38;27.20;94.30
1678;DHT22;6034;46.864;15.216;2022-07-23T06:57:05;27.30;94.90
1678;DHT22;6034;46.864;15.216;2022-07-23T06:59:32;27.40;95.90
1678;DHT22;6034;46.864;15.216;2022-07-23T07:02:01;27.50;94.90
1678;DHT22;6034;46.864;15.216;2022-07-23T07:04:28;27.80;95.70
1678;DHT22;6034;46.864;15.216;2022-07-23T07:06:57;27.60;94.00
1678;DHT22;6034;46.864;15.216;2022-07-23T07:09:24;27.50;94.80
1678;DHT22;6034;46.864;15.216;2022-07-23T07:11:50;27.60;94.70
1678;DHT22;6034;46.864;15.216;2022-07-23T07:14:17;27.80;96.00
1678;DHT22;6034;46.864;15.216;2022-07-23T07:16:44;27.90;95.70
1678;DHT22;6034;46.864;15.216;2022-07-23T07:19:11;27.80;95.50
1678;DHT22;6034;46.864;15.216;2022-07-23T07:21:38;27.60;96.20
1678;DHT22;6034;46.864;15.216;2022-07-23T07:24:06;27.60;96.40
1678;DHT22;6034;46.864;15.216;2022-07-23T07:26:33;27.60;95.80
1678;DHT22;6034;46.864;15.216;2022-07-23T07:29:00;27.70;97.60
1678;DHT22;6034;46.864;15.216;2022-07-23T07:31:27;27.70;97.70
1678;DHT22;6034;46.864;15.216;2022-07-23T07:33:54;27.50;95.20
1678;DHT22;6034;46.864;15.216;2022-07-23T07:36:22;27.40;95.10
1678;DHT22;6034;46.864;15.216;2022-07-23T07:38:49;27.40;94.90
1678;DHT22;6034;46.864;15.216;2022-07-23T07:41:17;27.50;96.20
1678;DHT22;6034;46.864;15.216;2022-07-23T07:43:48;27.60;95.80
1678;DHT22;6034;46.864;15.216;2022-07-23T07:46:15;27.70;96.50
1678;DHT22;6034;46.864;15.216;2022-07-23T07:48:42;27.70;97.10
1678;DHT22;6034;46.864;15.216;2022-07-23T07:51:08;27.80;97.40
1678;DHT22;6034;46.864;15.216;2022-07-23T07:53:35;27.60;97.60
1678;DHT22;6034;46.864;15.216;2022-07-23T07:56:02;27.40;96.70
1678;DHT22;6034;46.864;15.216;2022-07-23T07:58:31;27.50;96.80
1678;DHT22;6034;46.864;15.216;2022-07-23T08:00:58;27.60;96.00
1678;DHT22;6034;46.864;15.216;2022-07-23T08:03:25;27.80;95.80
1678;DHT22;6034;46.864;15.216;2022-07-23T08:05:52;27.90;95.60
1678;DHT22;6034;46.864;15.216;2022-07-23T08:08:19;28.00;95.20
1678;DHT22;6034;46.864;15.216;2022-07-23T08:10:46;28.30;94.60
1678;DHT22;6034;46.864;15.216;2022-07-23T08:13:13;28.40;94.80
1678;DHT22;6034;46.864;15.216;2022-07-23T08:15:42;28.50;94.00
1678;DHT22;6034;46.864;15.216;2022-07-23T08:18:10;28.60;94.40
1678;DHT22;6034;46.864;15.216;2022-07-23T08:20:36;28.60;94.20
1678;DHT22;6034;46.864;15.216;2022-07-23T08:23:04;28.50;94.20
1678;DHT22;6034;46.864;15.216;2022-07-23T08:25:32;28.40;93.80
1678;DHT22;6034;46.864;15.216;2022-07-23T08:27:59;28.40;94.80
1678;DHT22;6034;46.864;15.216;2022-07-23T08:30:27;28.20;92.70
1678;DHT22;6034;46.864;15.216;2022-07-23T08:32:56;28.40;93.90
1678;DHT22;6034;46.864;15.216;2022-07-23T08:35:27;28.50;93.80
1678;DHT22;6034;46.864;15.216;2022-07-23T08:37:54;28.50;93.50
1678;DHT22;6034;46.864;15.216;2022-07-23T08:40:21;28.60;93.00
1678;DHT22;6034;46.864;15.216;2022-07-23T08:42:49;28.60;93.00
1678;DHT22;6034;46.864;15.216;2022-07-23T08:45:17;28.80;91.40
1678;DHT22;6034;46.864;15.216;2022-07-23T08:47:44;28.90;92.30
1678;DHT22;6034;46.864;15.216;2022-07-23T08:50:12;28.80;92.30
1678;DHT22;6034;46.864;15.216;2022-07-23T08:52:40;28.70;93.10
1678;DHT22;6034;46.864;15.216;2022-07-23T08:55:07;28.90;91.10
1678;DHT22;6034;46.864;15.216;2022-07-23T08:57:34;28.90;91.60
1678;DHT22;6034;46.864;15.216;2022-07-23T09:00:01;29.10;91.30
1678;DHT22;6034;46.864;15.216;2022-07-23T09:02:28;29.00;91.10
1678;DHT22;6034;46.864;15.216;2022-07-23T09:04:55;28.80;92.30
1678;DHT22;6034;46.864;15.216;2022-07-23T09:07:23;29.00;91.20
1678;DHT22;6034;46.864;15.216;2022-07-23T09:09:57;29.00;90.60
1678;DHT22;6034;46.864;15.216;2022-07-23T09:12:31;29.00;91.50
1678;DHT22;6034;46.864;15.216;2022-07-23T09:14:57;29.10;91.10
1678;DHT22;6034;46.864;15.216;2022-07-23T09:17:29;29.00;90.80
1678;DHT22;6034;46.864;15.216;2022-07-23T09:20:08;29.10;91.50
1678;DHT22;6034;46.864;15.216;2022-07-23T09:22:36;29.00;89.80
1678;DHT22;6034;46.864;15.216;2022-07-23T09:25:04;29.20;90.80
1678;DHT22;6034;46.864;15.216;2022-07-23T09:27:45;29.20;91.20
1678;DHT22;6034;46.864;15.216;2022-07-23T09:30:15;29.50;90.70
1678;DHT22;6034;46.864;15.216;2022-07-23T09:32:42;29.60;88.30
1678;DHT22;6034;46.864;15.216;2022-07-23T09:35:09;29.60;85.00
1678;DHT22;6034;46.864;15.216;2022-07-23T09:37:38;29.70;86.00
1678;DHT22;6034;46.864;15.216;2022-07-23T09:40:05;29.80;84.90
1678;DHT22;6034;46.864;15.216;2022-07-23T09:42:33;29.80;85.70
1678;DHT22;6034;46.864;15.216;2022-07-23T09:44:59;29.80;85.60
1678;DHT22;6034;46.864;15.216;2022-07-23T09:47:27;29.80;81.50
1678;DHT22;6034;46.864;15.216;2022-07-23T09:49:58;29.90;85.90
1678;DHT22;6034;46.864;15.216;2022-07-23T09:52:26;30.20;85.70
1678;DHT22;6034;46.864;15.216;2022-07-23T09:54:58;30.40;90.70
1678;DHT22;6034;46.864;15.216;2022-07-23T09:57:26;30.50;81.00
1678;DHT22;6034;46.864;15.216;2022-07-23T09:59:53;30.60;83.70
1678;DHT22;6034;46.864;15.216;2022-07-23T10:02:23;30.90;81.00
1678;DHT22;6034;46.864;15.216;2022-07-23T10:04:51;30.70;79.10
1678;DHT22;6034;46.864;15.216;2022-07-23T10:07:19;30.40;82.10
1678;DHT22;6034;46.864;15.216;2022-07-23T10:09:50;30.60;77.20
1678;DHT22;6034;46.864;15.216;2022-07-23T10:12:20;30.90;77.10
1678;DHT22;6034;46.864;15.216;2022-07-23T10:14:51;31.10;80.20
1678;DHT22;6034;46.864;15.216;2022-07-23T10:17:18;31.20;77.70
1678;DHT22;6034;46.864;15.216;2022-07-23T10:19:45;31.30;76.30
1678;DHT22;6034;46.864;15.216;2022-07-23T10:22:13;30.90;77.00
1678;DHT22;6034;46.864;15.216;2022-07-23T10:24:50;31.10;75.70
1678;DHT22;6034;46.864;15.216;2022-07-23T10:27:23;31.10;73.10
1678;DHT22;6034;46.864;15.216;2022-07-23T10:29:57;31.30;76.60
1678;DHT22;6034;46.864;15.216;2022-07-23T10:32:26;31.20;72.90
1678;DHT22;6034;46.864;15.216;2022-07-23T10:34:58;31.40;73.50
1678;DHT22;6034;46.864;15.216;2022-07-23T10:37:28;31.50;73.20
1678;DHT22;6034;46.864;15.216;2022-07-23T10:42:45;32.10;76.90
1678;DHT22;6034;46.864;15.216;2022-07-23T10:45:21;32.40;70.50
1678;DHT22;6034;46.864;15.216;2022-07-23T10:47:49;32.40;71.40
1678;DHT22;6034;46.864;15.216;2022-07-23T10:50:17;32.40;73.30
1678;DHT22;6034;46.864;15.216;2022-07-23T10:52:51;32.50;74.10
1678;DHT22;6034;46.864;15.216;2022-07-23T10:58:45;32.80;74.80
1678;DHT22;6034;46.864;15.216;2022-07-23T11:03:59;32.70;76.20
1678;DHT22;6034;46.864;15.216;2022-07-23T11:11:49;33.10;74.10
1678;DHT22;6034;46.864;15.216;2022-07-23T11:14:18;32.90;73.40
1678;DHT22;6034;46.864;15.216;2022-07-23T11:17:06;32.80;75.10
1678;DHT22;6034;46.864;15.216;2022-07-23T11:22:33;32.90;70.70
1678;DHT22;6034;46.864;15.216;2022-07-23T11:25:00;32.70;67.70
1678;DHT22;6034;46.864;15.216;2022-07-23T11:27:36;32.50;65.90
1678;DHT22;6034;46.864;15.216;2022-07-23T11:30:05;32.10;66.80
1678;DHT22;6034;46.864;15.216;2022-07-23T11:32:34;32.10;67.10
1678;DHT22;6034;46.864;15.216;2022-07-23T11:35:18;31.90;65.70
1678;DHT22;6034;46.864;15.216;2022-07-23T11:37:45;31.80;66.30
1678;DHT22;6034;46.864;15.216;2022-07-23T11:40:14;31.80;71.90
1678;DHT22;6034;46.864;15.216;2022-07-23T11:42:50;31.70;69.80
1678;DHT22;6034;46.864;15.216;2022-07-23T11:45:19;31.40;69.40
1678;DHT22;6034;46.864;15.216;2022-07-23T11:47:46;31.40;69.60
1678;DHT22;6034;46.864;15.216;2022-07-23T11:50:12;31.30;68.80
1678;DHT22;6034;46.864;15.216;2022-07-23T11:52:39;31.60;66.30
1678;DHT22;6034;46.864;15.216;2022-07-23T11:55:07;31.70;66.20
1678;DHT22;6034;46.864;15.216;2022-07-23T11:57:35;31.70;66.90
1678;DHT22;6034;46.864;15.216;2022-07-23T12:00:04;32.00;65.80
1678;DHT22;6034;46.864;15.216;2022-07-23T12:02:33;32.00;71.50
1678;DHT22;6034;46.864;15.216;2022-07-23T12:05:00;31.70;69.30
1678;DHT22;6034;46.864;15.216;2022-07-23T12:07:28;31.40;72.10
1678;DHT22;6034;46.864;15.216;2022-07-23T12:09:56;31.50;64.70
1678;DHT22;6034;46.864;15.216;2022-07-23T12:12:23;31.80;70.50
1678;DHT22;6034;46.864;15.216;2022-07-23T12:14:51;31.90;65.00
1678;DHT22;6034;46.864;15.216;2022-07-23T12:17:19;31.70;67.80
1678;DHT22;6034;46.864;15.216;2022-07-23T12:19:47;31.50;70.50
1678;DHT22;6034;46.864;15.216;2022-07-23T12:22:14;31.80;64.50
1678;DHT22;6034;46.864;15.216;2022-07-23T12:24:54;32.10;64.80
1678;DHT22;6034;46.864;15.216;2022-07-23T12:27:22;32.40;64.30
1678;DHT22;6034;46.864;15.216;2022-07-23T12:29:49;32.40;63.00
1678;DHT22;6034;46.864;15.216;2022-07-23T12:32:16;32.20;63.20
1678;DHT22;6034;46.864;15.216;2022-07-23T12:34:43;32.10;66.30
1678;DHT22;6034;46.864;15.216;2022-07-23T12:37:25;32.00;63.80
1678;DHT22;6034;46.864;15.216;2022-07-23T12:39:52;32.20;67.00
1678;DHT22;6034;46.864;15.216;2022-07-23T12:42:19;32.30;66.10
1678;DHT22;6034;46.864;15.216;2022-07-23T12:45:02;32.10;68.40
1678;DHT22;6034;46.864;15.216;2022-07-23T12:47:29;31.80;65.40
1678;DHT22;6034;46.864;15.216;2022-07-23T12:49:56;31.70;67.20
1678;DHT22;6034;46.864;15.216;2022-07-23T12:52:25;31.70;66.90
1678;DHT22;6034;46.864;15.216;2022-07-23T12:54:59;31.80;68.10
1678;DHT22;6034;46.864;15.216;2022-07-23T13:00:08;31.90;70.40
1678;DHT22;6034;46.864;15.216;2022-07-23T13:02:44;31.80;67.70
1678;DHT22;6034;46.864;15.216;2022-07-23T13:05:11;31.80;68.90
1678;DHT22;6034;46.864;15.216;2022-07-23T13:07:38;31.80;69.40
1678;DHT22;6034;46.864;15.216;2022-07-23T13:10:06;32.20;65.30
1678;DHT22;6034;46.864;15.216;2022-07-23T13:12:33;32.20;63.80
1678;DHT22;6034;46.864;15.216;2022-07-23T13:15:00;32.10;64.30
1678;DHT22;6034;46.864;15.216;2022-07-23T13:17:27;32.10;66.40
1678;DHT22;6034;46.864;15.216;2022-07-23T13:19:54;32.10;67.60
1678;DHT22;6034;46.864;15.216;2022-07-23T13:22:21;32.10;70.90
1678;DHT22;6034;46.864;15.216;2022-07-23T13:24:48;32.10;70.70
1678;DHT22;6034;46.864;15.216;2022-07-23T13:27:16;32.20;69.90
1678;DHT22;6034;46.864;15.216;2022-07-23T13:29:43;32.20;70.00
1678;DHT22;6034;46.864;15.216;2022-07-23T13:32:09;32.30;68.90
1678;DHT22;6034;46.864;15.216;2022-07-23T13:34:38;32.30;68.30
1678;DHT22;6034;46.864;15.216;2022-07-23T13:37:05;32.20;68.90
1678;DHT22;6034;46.864;15.216;2022-07-23T13:39:32;32.30;71.70
1678;DHT22;6034;46.864;15.216;2022-07-23T13:41:59;32.70;68.60
1678;DHT22;6034;46.864;15.216;2022-07-23T13:44:27;32.70;69.80
1678;DHT22;6034;46.864;15.216;2022-07-23T13:46:54;32.60;71.00
1678;DHT22;6034;46.864;15.216;2022-07-23T13:49:21;32.30;70.10
1678;DHT22;6034;46.864;15.216;2022-07-23T13:51:47;32.30;70.60
1678;DHT22;6034;46.864;15.216;2022-07-23T13:54:14;32.20;69.90
1678;DHT22;6034;46.864;15.216;2022-07-23T13:56:41;32.20;68.10
1678;DHT22;6034;46.864;15.216;2022-07-23T13:59:08;32.20;70.70
1678;DHT22;6034;46.864;15.216;2022-07-23T14:01:37;32.10;66.70
1678;DHT22;6034;46.864;15.216;2022-07-23T14:04:04;32.30;64.80
1678;DHT22;6034;46.864;15.216;2022-07-23T14:06:31;32.70;69.00
1678;DHT22;6034;46.864;15.216;2022-07-23T14:08:58;32.80;70.20
1678;DHT22;6034;46.864;15.216;2022-07-23T14:11:25;32.80;75.00
1678;DHT22;6034;46.864;15.216;2022-07-23T14:13:53;32.90;68.30
1678;DHT22;6034;46.864;15.216;2022-07-23T14:16:20;32.50;63.40
1678;DHT22;6034;46.864;15.216;2022-07-23T14:18:48;32.50;64.70
1678;DHT22;6034;46.864;15.216;2022-07-23T14:21:15;32.70;67.10
1678;DHT22;6034;46.864;15.216;2022-07-23T14:23:42;32.80;65.50
1678;DHT22;6034;46.864;15.216;2022-07-23T14:26:09;33.00;67.80
1678;DHT22;6034;46.864;15.216;2022-07-23T14:28:35;33.10;67.40
1678;DHT22;6034;46.864;15.216;2022-07-23T14:31:02;33.10;64.70
1678;DHT22;6034;46.864;15.216;2022-07-23T14:33:29;32.90;69.40
1678;DHT22;6034;46.864;15.216;2022-07-23T14:35:57;32.90;64.20
1678;DHT22;6034;46.864;15.216;2022-07-23T14:38:24;32.90;67.20
1678;DHT22;6034;46.864;15.216;2022-07-23T14:40:51;33.00;67.30
1678;DHT22;6034;46.864;15.216;2022-07-23T14:43:18;32.80;68.00
1678;DHT22;6034;46.864;15.216;2022-07-23T14:45:45;32.60;67.50
1678;DHT22;6034;46.864;15.216;2022-07-23T14:48:12;32.40;64.30
1678;DHT22;6034;46.864;15.216;2022-07-23T14:50:38;32.10;64.20
1678;DHT22;6034;46.864;15.216;2022-07-23T14:53:07;32.20;66.50
1678;DHT22;6034;46.864;15.216;2022-07-23T14:55:33;32.20;66.20
1678;DHT22;6034;46.864;15.216;2022-07-23T14:58:00;32.20;66.50
1678;DHT22;6034;46.864;15.216;2022-07-23T15:00:27;32.30;67.20
1678;DHT22;6034;46.864;15.216;2022-07-23T15:02:54;32.30;65.70
1678;DHT22;6034;46.864;15.216;2022-07-23T15:05:21;32.40;67.20
1678;DHT22;6034;46.864;15.216;2022-07-23T15:07:48;32.40;67.30
1678;DHT22;6034;46.864;15.216;2022-07-23T15:10:16;32.40;69.20
1678;DHT22;6034;46.864;15.216;2022-07-23T15:12:43;32.20;69.00
1678;DHT22;6034;46.864;15.216;2022-07-23T15:15:10;32.20;70.00
1678;DHT22;6034;46.864;15.216;2022-07-23T15:17:37;32.30;69.80
1678;DHT22;6034;46.864;15.216;2022-07-23T15:20:04;32.20;70.60
1678;DHT22;6034;46.864;15.216;2022-07-23T15:22:31;32.10;69.50
1678;DHT22;6034;46.864;15.216;2022-07-23T15:24:58;31.80;66.30
1678;DHT22;6034;46.864;15.216;2022-07-23T15:27:26;31.80;69.70
1678;DHT22;6034;46.864;15.216;2022-07-23T15:29:53;31.80;68.40
1678;DHT22;6034;46.864;15.216;2022-07-23T15:32:20;31.80;67.20
1678;DHT22;6034;46.864;15.216;2022-07-23T15:34:50;31.80;69.10
1678;DHT22;6034;46.864;15.216;2022-07-23T15:37:17;31.80;68.20
1678;DHT22;6034;46.864;15.216;2022-07-23T15:39:44;31.90;68.80
1678;DHT22;6034;46.864;15.216;2022-07-23T15:42:10;31.90;67.30
1678;DHT22;6034;46.864;15.216;2022-07-23T15:44:39;31.90;66.00
1678;DHT22;6034;46.864;15.216;2022-07-23T15:47:06;31.90;67.70
1678;DHT22;6034;46.864;15.216;2022-07-23T15:49:37;31.90;66.70
1678;DHT22;6034;46.864;15.216;2022-07-23T15:52:04;31.90;68.60
1678;DHT22;6034;46.864;15.216;2022-07-23T15:54:31;31.80;70.00
1678;DHT22;6034;46.864;15.216;2022-07-23T15:56:57;31.80;70.50
1678;DHT22;6034;46.864;15.216;2022-07-23T15:59:24;31.80;71.40
1678;DHT22;6034;46.864;15.216;2022-07-23T16:01:53;31.70;68.70
1678;DHT22;6034;46.864;15.216;2022-07-23T16:04:19;31.60;68.40
1678;DHT22;6034;46.864;15.216;2022-07-23T16:06:46;31.50;67.50
1678;DHT22;6034;46.864;15.216;2022-07-23T16:09:13;31.60;69.00
1678;DHT22;6034;46.864;15.216;2022-07-23T16:11:40;31.60;71.70
1678;DHT22;6034;46.864;15.216;2022-07-23T16:14:07;31.60;72.50
1678;DHT22;6034;46.864;15.216;2022-07-23T16:16:34;31.60;73.10
1678;DHT22;6034;46.864;15.216;2022-07-23T16:19:02;31.60;73.00
1678;DHT22;6034;46.864;15.216;2022-07-23T16:21:29;31.60;73.00
1678;DHT22;6034;46.864;15.216;2022-07-23T16:23:56;31.60;73.30
1678;DHT22;6034;46.864;15.216;2022-07-23T16:26:22;31.60;73.50
1678;DHT22;6034;46.864;15.216;2022-07-23T16:28:49;31.60;74.80
1678;DHT22;6034;46.864;15.216;2022-07-23T16:31:17;31.60;76.60
1678;DHT22;6034;46.864;15.216;2022-07-23T16:33:44;31.60;76.10
1678;DHT22;6034;46.864;15.216;2022-07-23T16:36:14;31.60;76.00
1678;DHT22;6034;46.864;15.216;2022-07-23T16:38:41;31.50;76.40
1678;DHT22;6034;46.864;15.216;2022-07-23T16:41:08;31.60;77.00
1678;DHT22;6034;46.864;15.216;2022-07-23T16:43:35;31.60;77.40
1678;DHT22;6034;46.864;15.216;2022-07-23T16:46:02;31.60;77.40
1678;DHT22;6034;46.864;15.216;2022-07-23T16:48:29;31.50;77.40
1678;DHT22;6034;46.864;15.216;2022-07-23T16:50:56;31.50;77.50
1678;DHT22;6034;46.864;15.216;2022-07-23T16:53:25;31.40;78.80
1678;DHT22;6034;46.864;15.216;2022-07-23T16:55:52;31.40;80.60
1678;DHT22;6034;46.864;15.216;2022-07-23T16:58:19;31.40;79.50
1678;DHT22;6034;46.864;15.216;2022-07-23T17:00:45;30.80;78.30
1678;DHT22;6034;46.864;15.216;2022-07-23T17:03:12;30.60;77.40
1678;DHT22;6034;46.864;15.216;2022-07-23T17:05:39;30.20;76.10
1678;DHT22;6034;46.864;15.216;2022-07-23T17:08:06;30.20;76.80
1678;DHT22;6034;46.864;15.216;2022-07-23T17:10:34;30.10;77.70
1678;DHT22;6034;46.864;15.216;2022-07-23T17:13:01;29.80;78.30
1678;DHT22;6034;46.864;15.216;2022-07-23T17:15:28;29.80;78.80
1678;DHT22;6034;46.864;15.216;2022-07-23T17:17:55;29.60;79.00
1678;DHT22;6034;46.864;15.216;2022-07-23T17:20:22;29.60;79.00
1678;DHT22;6034;46.864;15.216;2022-07-23T17:22:48;29.50;78.70
1678;DHT22;6034;46.864;15.216;2022-07-23T17:25:15;29.20;78.80
1678;DHT22;6034;46.864;15.216;2022-07-23T17:27:46;29.20;79.50
1678;DHT22;6034;46.864;15.216;2022-07-23T17:30:14;29.30;79.60
1678;DHT22;6034;46.864;15.216;2022-07-23T17:32:41;29.10;78.80
1678;DHT22;6034;46.864;15.216;2022-07-23T17:35:08;28.90;77.40
1678;DHT22;6034;46.864;15.216;2022-07-23T17:37:35;28.90;78.50
1678;DHT22;6034;46.864;15.216;2022-07-23T17:40:02;28.60;77.90
1678;DHT22;6034;46.864;15.216;2022-07-23T17:42:29;28.60;78.60
1678;DHT22;6034;46.864;15.216;2022-07-23T17:44:58;28.50;78.00
1678;DHT22;6034;46.864;15.216;2022-07-23T17:47:25;28.50;77.60
1678;DHT22;6034;46.864;15.216;2022-07-23T17:49:52;28.60;78.80
1678;DHT22;6034;46.864;15.216;2022-07-23T17:52:19;28.50;79.00
1678;DHT22;6034;46.864;15.216;2022-07-23T17:54:46;28.50;79.00
1678;DHT22;6034;46.864;15.216;2022-07-23T17:57:13;28.50;78.90
1678;DHT22;6034;46.864;15.216;2022-07-23T17:59:40;28.50;80.00
1678;DHT22;6034;46.864;15.216;2022-07-23T18:02:08;28.50;80.50
1678;DHT22;6034;46.864;15.216;2022-07-23T18:04:35;28.50;80.90
1678;DHT22;6034;46.864;15.216;2022-07-23T18:07:02;28.40;78.60
1678;DHT22;6034;46.864;15.216;2022-07-23T18:09:28;28.40;79.00
1678;DHT22;6034;46.864;15.216;2022-07-23T18:11:55;28.50;78.40
1678;DHT22;6034;46.864;15.216;2022-07-23T18:14:23;28.50;79.20
1678;DHT22;6034;46.864;15.216;2022-07-23T18:16:50;28.40;78.70
1678;DHT22;6034;46.864;15.216;2022-07-23T18:19:18;28.30;78.90
1678;DHT22;6034;46.864;15.216;2022-07-23T18:21:45;28.30;79.30
1678;DHT22;6034;46.864;15.216;2022-07-23T18:24:12;28.30;77.70
1678;DHT22;6034;46.864;15.216;2022-07-23T18:26:39;28.20;75.70
1678;DHT22;6034;46.864;15.216;2022-07-23T18:29:05;28.20;76.90
1678;DHT22;6034;46.864;15.216;2022-07-23T18:31:32;28.20;78.00
1678;DHT22;6034;46.864;15.216;2022-07-23T18:33:59;28.30;78.10
1678;DHT22;6034;46.864;15.216;2022-07-23T18:36:27;28.20;77.80
1678;DHT22;6034;46.864;15.216;2022-07-23T18:38:54;28.20;77.20
1678;DHT22;6034;46.864;15.216;2022-07-23T18:41:21;28.20;78.70
1678;DHT22;6034;46.864;15.216;2022-07-23T18:43:48;28.20;79.30
1678;DHT22;6034;46.864;15.216;2022-07-23T18:46:15;28.20;81.70
1678;DHT22;6034;46.864;15.216;2022-07-23T18:48:42;28.10;82.40
1678;DHT22;6034;46.864;15.216;2022-07-23T18:51:09;28.10;80.90
1678;DHT22;6034;46.864;15.216;2022-07-23T18:53:37;28.10;80.20
1678;DHT22;6034;46.864;15.216;2022-07-23T18:56:04;28.00;80.50
1678;DHT22;6034;46.864;15.216;2022-07-23T18:58:31;28.00;83.40
1678;DHT22;6034;46.864;15.216;2022-07-23T19:00:58;28.00;83.10
1678;DHT22;6034;46.864;15.216;2022-07-23T19:03:25;28.00;83.10
1678;DHT22;6034;46.864;15.216;2022-07-23T19:05:52;28.00;83.50
1678;DHT22;6034;46.864;15.216;2022-07-23T19:08:18;27.90;82.90
1678;DHT22;6034;46.864;15.216;2022-07-23T19:10:47;27.90;83.40
1678;DHT22;6034;46.864;15.216;2022-07-23T19:13:13;27.90;83.40
1678;DHT22;6034;46.864;15.216;2022-07-23T19:15:40;27.80;83.30
1678;DHT22;6034;46.864;15.216;2022-07-23T19:18:07;27.80;84.00
1678;DHT22;6034;46.864;15.216;2022-07-23T19:20:34;27.80;83.70
1678;DHT22;6034;46.864;15.216;2022-07-23T19:23:01;27.80;83.80
1678;DHT22;6034;46.864;15.216;2022-07-23T19:25:28;27.80;82.60
1678;DHT22;6034;46.864;15.216;2022-07-23T19:27:57;27.70;82.60
1678;DHT22;6034;46.864;15.216;2022-07-23T19:30:24;27.70;84.00
1678;DHT22;6034;46.864;15.216;2022-07-23T19:32:50;27.70;84.60
1678;DHT22;6034;46.864;15.216;2022-07-23T19:35:17;27.60;83.30
1678;DHT22;6034;46.864;15.216;2022-07-23T19:37:44;27.70;84.20
1678;DHT22;6034;46.864;15.216;2022-07-23T19:40:11;27.70;84.10
1678;DHT22;6034;46.864;15.216;2022-07-23T19:42:38;27.60;84.30
1678;DHT22;6034;46.864;15.216;2022-07-23T19:45:07;27.60;81.70
1678;DHT22;6034;46.864;15.216;2022-07-23T19:47:34;27.60;82.40
1678;DHT22;6034;46.864;15.216;2022-07-23T19:50:02;27.60;82.40
1678;DHT22;6034;46.864;15.216;2022-07-23T19:52:29;27.50;78.30
1678;DHT22;6034;46.864;15.216;2022-07-23T19:54:56;27.20;77.40
1678;DHT22;6034;46.864;15.216;2022-07-23T19:57:23;27.00;78.10
1678;DHT22;6034;46.864;15.216;2022-07-23T19:59:49;26.70;78.10
1678;DHT22;6034;46.864;15.216;2022-07-23T20:02:18;26.40;79.10
1678;DHT22;6034;46.864;15.216;2022-07-23T20:04:44;26.20;80.70
1678;DHT22;6034;46.864;15.216;2022-07-23T20:07:11;26.00;84.60
1678;DHT22;6034;46.864;15.216;2022-07-23T20:09:38;25.40;92.50
1678;DHT22;6034;46.864;15.216;2022-07-23T20:12:05;24.80;95.60
1678;DHT22;6034;46.864;15.216;2022-07-23T20:14:32;24.70;97.90
1678;DHT22;6034;46.864;15.216;2022-07-23T20:19:28;24.10;98.90
1678;DHT22;6034;46.864;15.216;2022-07-23T20:21:55;24.10;99.90
1678;DHT22;6034;46.864;15.216;2022-07-23T20:24:22;23.40;99.90
1678;DHT22;6034;46.864;15.216;2022-07-23T20:26:49;23.10;99.90
1678;DHT22;6034;46.864;15.216;2022-07-23T20:29:16;23.30;99.90
1678;DHT22;6034;46.864;15.216;2022-07-23T20:31:44;23.40;99.90
1678;DHT22;6034;46.864;15.216;2022-07-23T20:34:11;23.50;99.90
1678;DHT22;6034;46.864;15.216;2022-07-23T20:36:39;23.00;99.90
1678;DHT22;6034;46.864;15.216;2022-07-23T20:39:06;23.30;99.90
1678;DHT22;6034;46.864;15.216;2022-07-23T20:41:33;23.50;99.90
1678;DHT22;6034;46.864;15.216;2022-07-23T20:44:00;23.60;99.90
1678;DHT22;6034;46.864;15.216;2022-07-23T20:46:27;23.10;99.90
1678;DHT22;6034;46.864;15.216;2022-07-23T20:48:54;23.00;99.90
1678;DHT22;6034;46.864;15.216;2022-07-23T20:51:21;23.30;99.90
1678;DHT22;6034;46.864;15.216;2022-07-23T20:53:49;23.40;99.90
1678;DHT22;6034;46.864;15.216;2022-07-23T20:56:17;23.40;99.90
1678;DHT22;6034;46.864;15.216;2022-07-23T20:58:44;23.40;99.90
1678;DHT22;6034;46.864;15.216;2022-07-23T21:01:11;23.40;99.90
1678;DHT22;6034;46.864;15.216;2022-07-23T21:03:38;23.30;99.90
1678;DHT22;6034;46.864;15.216;2022-07-23T21:06:05;23.30;99.90
1678;DHT22;6034;46.864;15.216;2022-07-23T21:08:32;23.30;99.90
1678;DHT22;6034;46.864;15.216;2022-07-23T21:11:01;23.30;99.90
1678;DHT22;6034;46.864;15.216;2022-07-23T21:13:27;23.30;99.90
1678;DHT22;6034;46.864;15.216;2022-07-23T21:15:54;23.20;99.90
1678;DHT22;6034;46.864;15.216;2022-07-23T21:18:21;23.20;99.90
1678;DHT22;6034;46.864;15.216;2022-07-23T21:20:48;23.20;99.90
1678;DHT22;6034;46.864;15.216;2022-07-23T21:23:32;23.20;99.90
1678;DHT22;6034;46.864;15.216;2022-07-23T21:26:01;23.10;99.90
1678;DHT22;6034;46.864;15.216;2022-07-23T21:28:28;23.10;99.90
1678;DHT22;6034;46.864;15.216;2022-07-23T21:30:55;22.80;99.90
1678;DHT22;6034;46.864;15.216;2022-07-23T21:33:22;22.90;99.90
1678;DHT22;6034;46.864;15.216;2022-07-23T21:35:49;23.00;99.90
1678;DHT22;6034;46.864;15.216;2022-07-23T21:38:16;23.00;99.90
1678;DHT22;6034;46.864;15.216;2022-07-23T21:40:43;23.00;99.90
1678;DHT22;6034;46.864;15.216;2022-07-23T21:43:11;23.00;99.90
1678;DHT22;6034;46.864;15.216;2022-07-23T21:45:38;23.00;99.90
1678;DHT22;6034;46.864;15.216;2022-07-23T21:48:05;23.00;99.90
1678;DHT22;6034;46.864;15.216;2022-07-23T21:50:32;23.00;99.90
1678;DHT22;6034;46.864;15.216;2022-07-23T21:52:58;23.00;99.90
1678;DHT22;6034;46.864;15.216;2022-07-23T21:55:25;22.80;99.90
1678;DHT22;6034;46.864;15.216;2022-07-23T21:57:52;22.80;99.90
1678;DHT22;6034;46.864;15.216;2022-07-23T22:00:22;22.70;99.90
1678;DHT22;6034;46.864;15.216;2022-07-23T22:02:51;22.30;99.90
1678;DHT22;6034;46.864;15.216;2022-07-23T22:05:18;22.40;99.90
1678;DHT22;6034;46.864;15.216;2022-07-23T22:07:45;22.40;99.90
1678;DHT22;6034;46.864;15.216;2022-07-23T22:10:12;22.50;99.90
1678;DHT22;6034;46.864;15.216;2022-07-23T22:12:40;22.50;99.90
1678;DHT22;6034;46.864;15.216;2022-07-23T22:15:07;22.60;99.90
1678;DHT22;6034;46.864;15.216;2022-07-23T22:17:36;22.60;99.90
1678;DHT22;6034;46.864;15.216;2022-07-23T22:20:03;22.60;99.90
1678;DHT22;6034;46.864;15.216;2022-07-23T22:22:30;22.50;99.90
1678;DHT22;6034;46.864;15.216;2022-07-23T22:24:57;22.30;99.90